Svitzer Sines — CSYI4 — position and weather

sailwx.info

Track history (hours):
 
Tides and Currents Weather Stations Pressure Air Temp Water Temp Dewpoint Dewpoint Depression Visibility Wind Speed Wind Dir Waves Ship Positions

Svitzer Sines

Last reported at 2015-Jul-06 15:33 UTC. Time now 2015-Jul-06 15:36 UTC.
Position N 38°42' W 009°10'.

Length 26 m; draft 4 m.

Type: Tug. MMSI: 263601890.

Date/timePositionNaut miles runAvg speedWind from/ knotsBaromVisibWave heightAir tempDewpointWater temp
2015-Jul-06 15:33N 38°42' W 009°10'0 0.0
2015-Jul-06 14:33N 38°42' W 009°10'0 0.0
2015-Jul-06 13:33N 38°42' W 009°10'0 0.0
2015-Jul-06 12:33N 38°42' W 009°10'0 0.0
2015-Jul-06 11:33N 38°42' W 009°10'0 0.0
2015-Jul-06 10:33N 38°42' W 009°10'1 0.6
2015-Jul-06 09:33N 38°42' W 009°10'1 1.4
2015-Jul-06 08:33N 38°41' W 009°09'1 1.1
2015-Jul-06 07:33N 38°42' W 009°10'0 0.0
2015-Jul-06 06:34N 38°42' W 009°10'0 0.0
2015-Jul-06 05:34N 38°42' W 009°10'3 2.6
2015-Jul-06 04:34N 38°43' W 009°07'3 2.6
2015-Jul-06 03:33N 38°42' W 009°10'0 0.0
2015-Jul-06 02:33N 38°42' W 009°10'0 0.0
2015-Jul-06 01:34N 38°42' W 009°10'0 0.0
2015-Jul-06 00:33N 38°42' W 009°10'0 0.0
2015-Jul-05 23:33N 38°42' W 009°10'0 0.0
2015-Jul-05 22:33N 38°42' W 009°10'0 0.0
2015-Jul-05 21:33N 38°42' W 009°10'0 0.0
2015-Jul-05 20:33N 38°42' W 009°10'0 0.0
2015-Jul-05 19:33N 38°42' W 009°10'2 2.4
2015-Jul-05 18:34N 38°43' W 009°07'2 2.4
2015-Jul-05 17:33N 38°45' W 009°06'0 0.0
2015-Jul-05 16:33N 38°45' W 009°06'2 2.3
2015-Jul-05 15:33N 38°43' W 009°07'1 1.2
2015-Jul-05 14:34N 38°42' W 009°08'1 1.3
2015-Jul-05 13:33N 38°42' W 009°10'0 0.0
2015-Jul-05 12:33N 38°42' W 009°10'0 0.0
2015-Jul-05 11:33N 38°42' W 009°10'0 0.0
2015-Jul-05 10:34N 38°42' W 009°10'0 0.0
2015-Jul-05 09:33N 38°42' W 009°10'0 0.0
2015-Jul-05 08:33N 38°42' W 009°10'0 0.0
2015-Jul-05 07:32N 38°42' W 009°10'0 0.0
2015-Jul-05 06:33N 38°42' W 009°10'0 0.0
2015-Jul-05 05:33N 38°42' W 009°10'0 0.0
2015-Jul-05 04:33N 38°42' W 009°10'0 0.0
2015-Jul-05 03:33N 38°42' W 009°10'0 0.0
2015-Jul-05 02:34N 38°42' W 009°10'0 0.0
2015-Jul-05 01:33N 38°42' W 009°10'0 0.0
2015-Jul-05 00:33N 38°42' W 009°10'0 0.0
2015-Jul-04 23:33N 38°42' W 009°10'0 0.0
2015-Jul-04 22:33N 38°42' W 009°10'0 0.0
2015-Jul-04 21:33N 38°42' W 009°10'0 0.0
2015-Jul-04 20:34N 38°42' W 009°10'0 0.0
2015-Jul-04 19:33N 38°42' W 009°10'0 0.0
2015-Jul-04 18:32N 38°42' W 009°10'0 0.0
2015-Jul-04 17:32N 38°42' W 009°10'2 2.2
2015-Jul-04 16:33N 38°41' W 009°12'2 2.2
2015-Jul-04 15:34N 38°42' W 009°09'0 0.2
2015-Jul-04 14:33N 38°42' W 009°10'1 1.3
2015-Jul-04 13:33N 38°41' W 009°11'1 1.3
2015-Jul-04 12:33N 38°42' W 009°10'0 0.0
2015-Jul-04 11:33N 38°42' W 009°10'2 2.1
2015-Jul-04 10:33N 38°41' W 009°12'2 2.2
2015-Jul-04 09:33N 38°42' W 009°10'0 0.0
2015-Jul-04 08:33N 38°42' W 009°10'0 0.0
2015-Jul-04 07:33N 38°42' W 009°10'0 0.3
2015-Jul-04 06:33N 38°42' W 009°10'0 0.3
2015-Jul-04 05:33N 38°42' W 009°10'0 0.0
2015-Jul-04 04:33N 38°42' W 009°10'0 0.0
2015-Jul-04 03:33N 38°42' W 009°10'0 0.0
2015-Jul-04 02:33N 38°42' W 009°10'0 0.0
2015-Jul-04 01:33N 38°42' W 009°10'0 0.0
2015-Jul-04 00:33N 38°42' W 009°10'0 0.0
2015-Jul-03 23:33N 38°42' W 009°10'0 0.0
2015-Jul-03 22:33N 38°42' W 009°10'0 0.0
2015-Jul-03 21:33N 38°42' W 009°10'0 0.0
2015-Jul-03 20:33N 38°42' W 009°10'0 0.0
2015-Jul-03 19:33N 38°42' W 009°10'0 0.0
2015-Jul-03 18:33N 38°42' W 009°10'0 0.0
2015-Jul-03 17:32N 38°42' W 009°10'0 0.0
2015-Jul-03 16:33N 38°42' W 009°10'2 2.4
2015-Jul-03 15:33N 38°40' W 009°08'0 0.4
2015-Jul-03 14:33N 38°40' W 009°09'0 0.1
2015-Jul-03 13:33N 38°40' W 009°09'0 0.1
2015-Jul-03 12:33N 38°40' W 009°09'1 1.4
2015-Jul-03 11:33N 38°41' W 009°09'1 1.0
2015-Jul-03 10:33N 38°42' W 009°10'0 0.0
2015-Jul-03 09:33N 38°42' W 009°10'0 0.0
2015-Jul-03 08:33N 38°42' W 009°10'0 0.2
2015-Jul-03 07:33N 38°42' W 009°10'0 0.2
2015-Jul-03 06:33N 38°42' W 009°10'0 0.0
2015-Jul-03 05:33N 38°42' W 009°10'0 0.0
2015-Jul-03 04:33N 38°42' W 009°10'0 0.0
2015-Jul-03 03:33N 38°42' W 009°10'0 0.0
2015-Jul-03 02:33N 38°42' W 009°10'0 0.0
2015-Jul-03 01:33N 38°42' W 009°10'0 0.0
2015-Jul-03 00:33N 38°42' W 009°10'0 0.0
2015-Jul-02 23:32N 38°42' W 009°10'0 0.0
2015-Jul-02 22:33N 38°42' W 009°10'0 0.0
2015-Jul-02 21:33N 38°42' W 009°10'0 0.0
2015-Jul-02 20:33N 38°42' W 009°10'0 0.0
2015-Jul-02 19:34N 38°42' W 009°10'1 1.2
2015-Jul-02 18:33N 38°42' W 009°08'0 0.1
2015-Jul-02 17:33N 38°42' W 009°08'0 0.1
2015-Jul-02 16:33N 38°42' W 009°08'1 1.2
2015-Jul-02 15:33N 38°42' W 009°10'0 0.0
2015-Jul-02 14:33N 38°42' W 009°10'0 0.0
2015-Jul-02 13:33N 38°42' W 009°10'0 0.0
2015-Jul-02 12:33N 38°42' W 009°10'0 0.0
2015-Jul-02 11:33N 38°42' W 009°10'0 0.0
2015-Jul-02 10:33N 38°42' W 009°10'0 0.5
2015-Jul-02 09:33N 38°42' W 009°10'1 0.6
2015-Jul-02 08:33N 38°41' W 009°11'1 1.0
2015-Jul-02 07:33N 38°42' W 009°10'0 0.0
2015-Jul-02 06:33N 38°42' W 009°10'0 0.0
2015-Jul-02 05:33N 38°42' W 009°10'0 0.0
2015-Jul-02 04:33N 38°42' W 009°10'0 0.0
2015-Jul-02 03:33N 38°42' W 009°10'0 0.0
2015-Jul-02 02:33N 38°42' W 009°10'0 0.0
2015-Jul-02 01:33N 38°42' W 009°10'0 0.0
2015-Jul-02 00:33N 38°42' W 009°10'0 0.0
2015-Jul-01 23:33N 38°42' W 009°10'0 0.0
2015-Jul-01 22:33N 38°42' W 009°10'0 0.0
2015-Jul-01 21:33N 38°42' W 009°10'0 0.0
2015-Jul-01 20:33N 38°42' W 009°10'0 0.0
2015-Jul-01 19:33N 38°42' W 009°10'0 0.0
2015-Jul-01 18:33N 38°42' W 009°10'0 0.0
2015-Jul-01 17:33N 38°42' W 009°10'0 0.0
2015-Jul-01 16:33N 38°42' W 009°10'0 0.0
2015-Jul-01 15:33N 38°42' W 009°10'0 0.0
2015-Jul-01 14:33N 38°42' W 009°10'0 0.0
2015-Jul-01 13:33N 38°42' W 009°10'0 0.0
2015-Jul-01 12:33N 38°42' W 009°10'0 0.0
2015-Jul-01 11:33N 38°42' W 009°10'0 0.0
2015-Jul-01 10:33N 38°42' W 009°10'0 0.0
2015-Jul-01 09:33N 38°42' W 009°10'0 0.0
2015-Jul-01 08:33N 38°42' W 009°10'0 0.0
2015-Jul-01 07:33N 38°42' W 009°10'0 0.0
2015-Jul-01 06:33N 38°42' W 009°10'0 0.0
2015-Jul-01 05:33N 38°42' W 009°10'0 0.0
2015-Jul-01 04:33N 38°42' W 009°10'0 0.0
2015-Jul-01 03:33N 38°42' W 009°10'0 0.0
2015-Jul-01 02:33N 38°42' W 009°10'0 0.0
2015-Jul-01 01:33N 38°42' W 009°10'0 0.0
2015-Jul-01 00:33N 38°42' W 009°10'2 1.5
2015-Jun-30 23:33N 38°42' W 009°08'0 0.2
2015-Jun-30 22:33N 38°42' W 009°08'1 1.5
2015-Jun-30 21:33N 38°42' W 009°09'4 3.8
2015-Jun-30 20:33N 38°41' W 009°14'3 2.6
2015-Jun-30 19:33N 38°41' W 009°11'1 1.1
2015-Jun-30 18:33N 38°42' W 009°10'0 0.0
2015-Jun-30 17:33N 38°42' W 009°10'0 0.2
2015-Jun-30 16:33N 38°42' W 009°09'2 1.7
2015-Jun-30 15:33N 38°41' W 009°11'1 0.8
2015-Jun-30 14:33N 38°42' W 009°10'1 0.8
2015-Jun-30 13:33N 38°42' W 009°10'0 0.0
2015-Jun-30 12:33N 38°42' W 009°10'0 0.0
2015-Jun-30 11:33N 38°42' W 009°10'0 0.0
2015-Jun-30 10:33N 38°42' W 009°10'0 0.2
2015-Jun-30 09:33N 38°42' W 009°09'0 0.2
2015-Jun-30 08:33N 38°42' W 009°10'0 0.0
2015-Jun-30 07:33N 38°42' W 009°10'0 0.0
2015-Jun-30 06:33N 38°42' W 009°10'0 0.0
2015-Jun-30 05:33N 38°42' W 009°10'0 0.0
2015-Jun-30 04:33N 38°42' W 009°10'0 0.0
2015-Jun-30 03:33N 38°42' W 009°10'0 0.0
2015-Jun-30 02:33N 38°42' W 009°10'0 0.0
2015-Jun-30 01:33N 38°42' W 009°10'0 0.0
2015-Jun-30 00:33N 38°42' W 009°10'0 0.0
2015-Jun-29 23:33N 38°42' W 009°10'0 0.0
2015-Jun-29 22:33N 38°42' W 009°10'0 0.0
2015-Jun-29 21:33N 38°42' W 009°10'0 0.0
2015-Jun-29 20:33N 38°42' W 009°10'0 0.0
2015-Jun-29 19:33N 38°42' W 009°10'0 0.0
2015-Jun-29 18:33N 38°42' W 009°10'0 0.0
2015-Jun-29 17:33N 38°42' W 009°10'0 0.0
2015-Jun-29 16:33N 38°42' W 009°10'0 0.0
2015-Jun-29 15:33N 38°42' W 009°10'0 0.0
2015-Jun-29 14:33N 38°42' W 009°10'5 4.8
2015-Jun-29 13:33N 38°41' W 009°04'2 1.9
2015-Jun-29 12:33N 38°41' W 009°06'3 3.2
2015-Jun-29 11:33N 38°42' W 009°10'0 0.0
2015-Jun-29 10:33N 38°42' W 009°10'1 1.2
2015-Jun-29 09:33N 38°41' W 009°09'1 1.0
2015-Jun-29 08:33N 38°40' W 009°08'2 2.0
2015-Jun-29 07:33N 38°42' W 009°10'0 0.0
2015-Jun-29 06:33N 38°42' W 009°10'0 0.0
2015-Jun-29 05:33N 38°42' W 009°10'0 0.0
2015-Jun-29 04:33N 38°42' W 009°10'0 0.0
2015-Jun-29 03:33N 38°42' W 009°10'0 0.0
2015-Jun-29 02:33N 38°42' W 009°10'0 0.0
2015-Jun-29 01:33N 38°42' W 009°10'0 0.0
2015-Jun-29 00:33N 38°42' W 009°10'0 0.0
2015-Jun-28 23:33N 38°42' W 009°10'0 0.0
2015-Jun-28 22:33N 38°42' W 009°10'0 0.0
2015-Jun-28 21:33N 38°42' W 009°10'0 0.0
2015-Jun-28 20:33N 38°42' W 009°10'0 0.0
2015-Jun-28 19:33N 38°42' W 009°10'0 0.0
2015-Jun-28 18:33N 38°42' W 009°10'0 0.0
2015-Jun-28 17:33N 38°42' W 009°10'0 0.0
2015-Jun-28 16:33N 38°42' W 009°10'0 0.0
2015-Jun-28 15:33N 38°42' W 009°10'0 0.0
2015-Jun-28 14:33N 38°42' W 009°10'0 0.0
2015-Jun-28 13:33N 38°42' W 009°10'0 0.0
2015-Jun-28 12:33N 38°42' W 009°10'0 0.0
2015-Jun-28 11:33N 38°42' W 009°10'0 0.0
2015-Jun-28 10:33N 38°42' W 009°10'0 0.0
2015-Jun-28 09:33N 38°42' W 009°10'0 0.5
2015-Jun-28 08:33N 38°42' W 009°09'0 0.3
2015-Jun-28 07:33N 38°42' W 009°09'1 0.7
2015-Jun-28 06:33N 38°42' W 009°10'0 0.0
2015-Jun-28 05:33N 38°42' W 009°10'0 0.0
2015-Jun-28 04:33N 38°42' W 009°10'0 0.0
2015-Jun-28 03:33N 38°42' W 009°10'0 0.0
2015-Jun-28 02:33N 38°42' W 009°10'0 0.0
2015-Jun-28 01:33N 38°42' W 009°10'0 0.0
2015-Jun-28 00:33N 38°42' W 009°10'0 0.0
2015-Jun-27 23:33N 38°42' W 009°10'4 3.8
2015-Jun-27 22:33N 38°41' W 009°14'4 3.8
2015-Jun-27 21:33N 38°42' W 009°10'0 0.0
2015-Jun-27 20:33N 38°42' W 009°10'0 0.4
2015-Jun-27 19:33N 38°42' W 009°10'0 0.3
2015-Jun-27 18:33N 38°42' W 009°10'1 0.6
2015-Jun-27 17:33N 38°42' W 009°10'0 0.0
2015-Jun-27 16:33N 38°42' W 009°10'0 0.0
2015-Jun-27 15:33N 38°42' W 009°10'0 0.0
2015-Jun-27 14:33N 38°42' W 009°10'0 0.0
2015-Jun-27 13:33N 38°42' W 009°10'0 0.0
2015-Jun-27 12:33N 38°42' W 009°10'0 0.0
2015-Jun-27 11:33N 38°42' W 009°10'3 2.7
2015-Jun-27 10:33N 38°43' W 009°07'3 2.6
2015-Jun-27 09:33N 38°42' W 009°09'1 0.9
2015-Jun-27 08:33N 38°42' W 009°10'1 0.6
2015-Jun-27 07:33N 38°42' W 009°10'0 0.3
2015-Jun-27 06:33N 38°42' W 009°10'0 0.0
2015-Jun-27 05:33N 38°42' W 009°10'0 0.0
2015-Jun-27 04:33N 38°42' W 009°10'0 0.0
2015-Jun-27 03:33N 38°42' W 009°10'0 0.0
2015-Jun-27 02:33N 38°42' W 009°10'0 0.0
2015-Jun-27 01:33N 38°42' W 009°10'0 0.0
2015-Jun-27 00:33N 38°42' W 009°10'0 0.0
2015-Jun-26 23:33N 38°42' W 009°10'0 0.0
2015-Jun-26 22:33N 38°42' W 009°10'0 0.0
2015-Jun-26 21:33N 38°42' W 009°10'0 0.0
2015-Jun-26 20:33N 38°42' W 009°10'0 0.0
2015-Jun-26 19:33N 38°42' W 009°10'0 0.0
2015-Jun-26 18:33N 38°42' W 009°10'0 0.0
2015-Jun-26 17:33N 38°42' W 009°10'2 1.8
2015-Jun-26 16:33N 38°41' W 009°11'2 1.9
2015-Jun-26 15:33N 38°41' W 009°14'  
Track history (hours):
 
Tides and Currents Weather Stations Pressure Air Temp Water Temp Dewpoint Dewpoint Depression Visibility Wind Speed Wind Dir Waves Ship Positions

Svitzer Sines

Last reported at 2015-Jul-06 15:33 UTC. Time now 2015-Jul-06 15:36 UTC.
Position N 38°42' W 009°10'.

Length 26 m; draft 4 m.

Type: Tug. MMSI: 263601890.

Date/timePositionNaut miles runAvg speedWind from/ knotsBaromVisibWave heightAir tempDewpointWater temp
2015-Jul-06 15:33N 38°42' W 009°10'0 0.0
2015-Jul-06 14:33N 38°42' W 009°10'0 0.0
2015-Jul-06 13:33N 38°42' W 009°10'0 0.0
2015-Jul-06 12:33N 38°42' W 009°10'0 0.0
2015-Jul-06 11:33N 38°42' W 009°10'0 0.0
2015-Jul-06 10:33N 38°42' W 009°10'1 0.6
2015-Jul-06 09:33N 38°42' W 009°10'1 1.4
2015-Jul-06 08:33N 38°41' W 009°09'1 1.1
2015-Jul-06 07:33N 38°42' W 009°10'0 0.0
2015-Jul-06 06:34N 38°42' W 009°10'0 0.0
2015-Jul-06 05:34N 38°42' W 009°10'3 2.6
2015-Jul-06 04:34N 38°43' W 009°07'3 2.6
2015-Jul-06 03:33N 38°42' W 009°10'0 0.0
2015-Jul-06 02:33N 38°42' W 009°10'0 0.0
2015-Jul-06 01:34N 38°42' W 009°10'0 0.0
2015-Jul-06 00:33N 38°42' W 009°10'0 0.0
2015-Jul-05 23:33N 38°42' W 009°10'0 0.0
2015-Jul-05 22:33N 38°42' W 009°10'0 0.0
2015-Jul-05 21:33N 38°42' W 009°10'0 0.0
2015-Jul-05 20:33N 38°42' W 009°10'0 0.0
2015-Jul-05 19:33N 38°42' W 009°10'2 2.4
2015-Jul-05 18:34N 38°43' W 009°07'2 2.4
2015-Jul-05 17:33N 38°45' W 009°06'0 0.0
2015-Jul-05 16:33N 38°45' W 009°06'2 2.3
2015-Jul-05 15:33N 38°43' W 009°07'1 1.2
2015-Jul-05 14:34N 38°42' W 009°08'1 1.3
2015-Jul-05 13:33N 38°42' W 009°10'0 0.0
2015-Jul-05 12:33N 38°42' W 009°10'0 0.0
2015-Jul-05 11:33N 38°42' W 009°10'0 0.0
2015-Jul-05 10:34N 38°42' W 009°10'0 0.0
2015-Jul-05 09:33N 38°42' W 009°10'0 0.0
2015-Jul-05 08:33N 38°42' W 009°10'0 0.0
2015-Jul-05 07:32N 38°42' W 009°10'0 0.0
2015-Jul-05 06:33N 38°42' W 009°10'0 0.0
2015-Jul-05 05:33N 38°42' W 009°10'0 0.0
2015-Jul-05 04:33N 38°42' W 009°10'0 0.0
2015-Jul-05 03:33N 38°42' W 009°10'0 0.0
2015-Jul-05 02:34N 38°42' W 009°10'0 0.0
2015-Jul-05 01:33N 38°42' W 009°10'0 0.0
2015-Jul-05 00:33N 38°42' W 009°10'0 0.0
2015-Jul-04 23:33N 38°42' W 009°10'0 0.0
2015-Jul-04 22:33N 38°42' W 009°10'0 0.0
2015-Jul-04 21:33N 38°42' W 009°10'0 0.0
2015-Jul-04 20:34N 38°42' W 009°10'0 0.0
2015-Jul-04 19:33N 38°42' W 009°10'0 0.0
2015-Jul-04 18:32N 38°42' W 009°10'0 0.0
2015-Jul-04 17:32N 38°42' W 009°10'2 2.2
2015-Jul-04 16:33N 38°41' W 009°12'2 2.2
2015-Jul-04 15:34N 38°42' W 009°09'0 0.2
2015-Jul-04 14:33N 38°42' W 009°10'1 1.3
2015-Jul-04 13:33N 38°41' W 009°11'1 1.3
2015-Jul-04 12:33N 38°42' W 009°10'0 0.0
2015-Jul-04 11:33N 38°42' W 009°10'2 2.1
2015-Jul-04 10:33N 38°41' W 009°12'2 2.2
2015-Jul-04 09:33N 38°42' W 009°10'0 0.0
2015-Jul-04 08:33N 38°42' W 009°10'0 0.0
2015-Jul-04 07:33N 38°42' W 009°10'0 0.3
2015-Jul-04 06:33N 38°42' W 009°10'0 0.3
2015-Jul-04 05:33N 38°42' W 009°10'0 0.0
2015-Jul-04 04:33N 38°42' W 009°10'0 0.0
2015-Jul-04 03:33N 38°42' W 009°10'0 0.0
2015-Jul-04 02:33N 38°42' W 009°10'0 0.0
2015-Jul-04 01:33N 38°42' W 009°10'0 0.0
2015-Jul-04 00:33N 38°42' W 009°10'0 0.0
2015-Jul-03 23:33N 38°42' W 009°10'0 0.0
2015-Jul-03 22:33N 38°42' W 009°10'0 0.0
2015-Jul-03 21:33N 38°42' W 009°10'0 0.0
2015-Jul-03 20:33N 38°42' W 009°10'0 0.0
2015-Jul-03 19:33N 38°42' W 009°10'0 0.0
2015-Jul-03 18:33N 38°42' W 009°10'0 0.0
2015-Jul-03 17:32N 38°42' W 009°10'0 0.0
2015-Jul-03 16:33N 38°42' W 009°10'2 2.4
2015-Jul-03 15:33N 38°40' W 009°08'0 0.4
2015-Jul-03 14:33N 38°40' W 009°09'0 0.1
2015-Jul-03 13:33N 38°40' W 009°09'0 0.1
2015-Jul-03 12:33N 38°40' W 009°09'1 1.4
2015-Jul-03 11:33N 38°41' W 009°09'1 1.0
2015-Jul-03 10:33N 38°42' W 009°10'0 0.0
2015-Jul-03 09:33N 38°42' W 009°10'0 0.0
2015-Jul-03 08:33N 38°42' W 009°10'0 0.2
2015-Jul-03 07:33N 38°42' W 009°10'0 0.2
2015-Jul-03 06:33N 38°42' W 009°10'0 0.0
2015-Jul-03 05:33N 38°42' W 009°10'0 0.0
2015-Jul-03 04:33N 38°42' W 009°10'0 0.0
2015-Jul-03 03:33N 38°42' W 009°10'0 0.0
2015-Jul-03 02:33N 38°42' W 009°10'0 0.0
2015-Jul-03 01:33N 38°42' W 009°10'0 0.0
2015-Jul-03 00:33N 38°42' W 009°10'0 0.0
2015-Jul-02 23:32N 38°42' W 009°10'0 0.0
2015-Jul-02 22:33N 38°42' W 009°10'0 0.0
2015-Jul-02 21:33N 38°42' W 009°10'0 0.0
2015-Jul-02 20:33N 38°42' W 009°10'0 0.0
2015-Jul-02 19:34N 38°42' W 009°10'1 1.2
2015-Jul-02 18:33N 38°42' W 009°08'0 0.1
2015-Jul-02 17:33N 38°42' W 009°08'0 0.1
2015-Jul-02 16:33N 38°42' W 009°08'1 1.2
2015-Jul-02 15:33N 38°42' W 009°10'0 0.0
2015-Jul-02 14:33N 38°42' W 009°10'0 0.0
2015-Jul-02 13:33N 38°42' W 009°10'0 0.0
2015-Jul-02 12:33N 38°42' W 009°10'0 0.0
2015-Jul-02 11:33N 38°42' W 009°10'0 0.0
2015-Jul-02 10:33N 38°42' W 009°10'0 0.5
2015-Jul-02 09:33N 38°42' W 009°10'1 0.6
2015-Jul-02 08:33N 38°41' W 009°11'1 1.0
2015-Jul-02 07:33N 38°42' W 009°10'0 0.0
2015-Jul-02 06:33N 38°42' W 009°10'0 0.0
2015-Jul-02 05:33N 38°42' W 009°10'0 0.0
2015-Jul-02 04:33N 38°42' W 009°10'0 0.0
2015-Jul-02 03:33N 38°42' W 009°10'0 0.0
2015-Jul-02 02:33N 38°42' W 009°10'0 0.0
2015-Jul-02 01:33N 38°42' W 009°10'0 0.0
2015-Jul-02 00:33N 38°42' W 009°10'0 0.0
2015-Jul-01 23:33N 38°42' W 009°10'0 0.0
2015-Jul-01 22:33N 38°42' W 009°10'0 0.0
2015-Jul-01 21:33N 38°42' W 009°10'0 0.0
2015-Jul-01 20:33N 38°42' W 009°10'0 0.0
2015-Jul-01 19:33N 38°42' W 009°10'0 0.0
2015-Jul-01 18:33N 38°42' W 009°10'0 0.0
2015-Jul-01 17:33N 38°42' W 009°10'0 0.0
2015-Jul-01 16:33N 38°42' W 009°10'0 0.0
2015-Jul-01 15:33N 38°42' W 009°10'0 0.0
2015-Jul-01 14:33N 38°42' W 009°10'0 0.0
2015-Jul-01 13:33N 38°42' W 009°10'0 0.0
2015-Jul-01 12:33N 38°42' W 009°10'0 0.0
2015-Jul-01 11:33N 38°42' W 009°10'0 0.0
2015-Jul-01 10:33N 38°42' W 009°10'0 0.0
2015-Jul-01 09:33N 38°42' W 009°10'0 0.0
2015-Jul-01 08:33N 38°42' W 009°10'0 0.0
2015-Jul-01 07:33N 38°42' W 009°10'0 0.0
2015-Jul-01 06:33N 38°42' W 009°10'0 0.0
2015-Jul-01 05:33N 38°42' W 009°10'0 0.0
2015-Jul-01 04:33N 38°42' W 009°10'0 0.0
2015-Jul-01 03:33N 38°42' W 009°10'0 0.0
2015-Jul-01 02:33N 38°42' W 009°10'0 0.0
2015-Jul-01 01:33N 38°42' W 009°10'0 0.0
2015-Jul-01 00:33N 38°42' W 009°10'2 1.5
2015-Jun-30 23:33N 38°42' W 009°08'0 0.2
2015-Jun-30 22:33N 38°42' W 009°08'1 1.5
2015-Jun-30 21:33N 38°42' W 009°09'4 3.8
2015-Jun-30 20:33N 38°41' W 009°14'3 2.6
2015-Jun-30 19:33N 38°41' W 009°11'1 1.1
2015-Jun-30 18:33N 38°42' W 009°10'0 0.0
2015-Jun-30 17:33N 38°42' W 009°10'0 0.2
2015-Jun-30 16:33N 38°42' W 009°09'2 1.7
2015-Jun-30 15:33N 38°41' W 009°11'1 0.8
2015-Jun-30 14:33N 38°42' W 009°10'1 0.8
2015-Jun-30 13:33N 38°42' W 009°10'0 0.0
2015-Jun-30 12:33N 38°42' W 009°10'0 0.0
2015-Jun-30 11:33N 38°42' W 009°10'0 0.0
2015-Jun-30 10:33N 38°42' W 009°10'0 0.2
2015-Jun-30 09:33N 38°42' W 009°09'0 0.2
2015-Jun-30 08:33N 38°42' W 009°10'0 0.0
2015-Jun-30 07:33N 38°42' W 009°10'0 0.0
2015-Jun-30 06:33N 38°42' W 009°10'0 0.0
2015-Jun-30 05:33N 38°42' W 009°10'0 0.0
2015-Jun-30 04:33N 38°42' W 009°10'0 0.0
2015-Jun-30 03:33N 38°42' W 009°10'0 0.0
2015-Jun-30 02:33N 38°42' W 009°10'0 0.0
2015-Jun-30 01:33N 38°42' W 009°10'0 0.0
2015-Jun-30 00:33N 38°42' W 009°10'0 0.0
2015-Jun-29 23:33N 38°42' W 009°10'0 0.0
2015-Jun-29 22:33N 38°42' W 009°10'0 0.0
2015-Jun-29 21:33N 38°42' W 009°10'0 0.0
2015-Jun-29 20:33N 38°42' W 009°10'0 0.0
2015-Jun-29 19:33N 38°42' W 009°10'0 0.0
2015-Jun-29 18:33N 38°42' W 009°10'0 0.0
2015-Jun-29 17:33N 38°42' W 009°10'0 0.0
2015-Jun-29 16:33N 38°42' W 009°10'0 0.0
2015-Jun-29 15:33N 38°42' W 009°10'0 0.0
2015-Jun-29 14:33N 38°42' W 009°10'5 4.8
2015-Jun-29 13:33N 38°41' W 009°04'2 1.9
2015-Jun-29 12:33N 38°41' W 009°06'3 3.2
2015-Jun-29 11:33N 38°42' W 009°10'0 0.0
2015-Jun-29 10:33N 38°42' W 009°10'1 1.2
2015-Jun-29 09:33N 38°41' W 009°09'1 1.0
2015-Jun-29 08:33N 38°40' W 009°08'2 2.0
2015-Jun-29 07:33N 38°42' W 009°10'0 0.0
2015-Jun-29 06:33N 38°42' W 009°10'0 0.0
2015-Jun-29 05:33N 38°42' W 009°10'0 0.0
2015-Jun-29 04:33N 38°42' W 009°10'0 0.0
2015-Jun-29 03:33N 38°42' W 009°10'0 0.0
2015-Jun-29 02:33N 38°42' W 009°10'0 0.0
2015-Jun-29 01:33N 38°42' W 009°10'0 0.0
2015-Jun-29 00:33N 38°42' W 009°10'0 0.0
2015-Jun-28 23:33N 38°42' W 009°10'0 0.0
2015-Jun-28 22:33N 38°42' W 009°10'0 0.0
2015-Jun-28 21:33N 38°42' W 009°10'0 0.0
2015-Jun-28 20:33N 38°42' W 009°10'0 0.0
2015-Jun-28 19:33N 38°42' W 009°10'0 0.0
2015-Jun-28 18:33N 38°42' W 009°10'0 0.0
2015-Jun-28 17:33N 38°42' W 009°10'0 0.0
2015-Jun-28 16:33N 38°42' W 009°10'0 0.0
2015-Jun-28 15:33N 38°42' W 009°10'0 0.0
2015-Jun-28 14:33N 38°42' W 009°10'0 0.0
2015-Jun-28 13:33N 38°42' W 009°10'0 0.0
2015-Jun-28 12:33N 38°42' W 009°10'0 0.0
2015-Jun-28 11:33N 38°42' W 009°10'0 0.0
2015-Jun-28 10:33N 38°42' W 009°10'0 0.0
2015-Jun-28 09:33N 38°42' W 009°10'0 0.5
2015-Jun-28 08:33N 38°42' W 009°09'0 0.3
2015-Jun-28 07:33N 38°42' W 009°09'1 0.7
2015-Jun-28 06:33N 38°42' W 009°10'0 0.0
2015-Jun-28 05:33N 38°42' W 009°10'0 0.0
2015-Jun-28 04:33N 38°42' W 009°10'0 0.0
2015-Jun-28 03:33N 38°42' W 009°10'0 0.0
2015-Jun-28 02:33N 38°42' W 009°10'0 0.0
2015-Jun-28 01:33N 38°42' W 009°10'0 0.0
2015-Jun-28 00:33N 38°42' W 009°10'0 0.0
2015-Jun-27 23:33N 38°42' W 009°10'4 3.8
2015-Jun-27 22:33N 38°41' W 009°14'4 3.8
2015-Jun-27 21:33N 38°42' W 009°10'0 0.0
2015-Jun-27 20:33N 38°42' W 009°10'0 0.4
2015-Jun-27 19:33N 38°42' W 009°10'0 0.3
2015-Jun-27 18:33N 38°42' W 009°10'1 0.6
2015-Jun-27 17:33N 38°42' W 009°10'0 0.0
2015-Jun-27 16:33N 38°42' W 009°10'0 0.0
2015-Jun-27 15:33N 38°42' W 009°10'0 0.0
2015-Jun-27 14:33N 38°42' W 009°10'0 0.0
2015-Jun-27 13:33N 38°42' W 009°10'0 0.0
2015-Jun-27 12:33N 38°42' W 009°10'0 0.0
2015-Jun-27 11:33N 38°42' W 009°10'3 2.7
2015-Jun-27 10:33N 38°43' W 009°07'3 2.6
2015-Jun-27 09:33N 38°42' W 009°09'1 0.9
2015-Jun-27 08:33N 38°42' W 009°10'1 0.6
2015-Jun-27 07:33N 38°42' W 009°10'0 0.3
2015-Jun-27 06:33N 38°42' W 009°10'0 0.0
2015-Jun-27 05:33N 38°42' W 009°10'0 0.0
2015-Jun-27 04:33N 38°42' W 009°10'0 0.0
2015-Jun-27 03:33N 38°42' W 009°10'0 0.0
2015-Jun-27 02:33N 38°42' W 009°10'0 0.0
2015-Jun-27 01:33N 38°42' W 009°10'0 0.0
2015-Jun-27 00:33N 38°42' W 009°10'0 0.0
2015-Jun-26 23:33N 38°42' W 009°10'0 0.0
2015-Jun-26 22:33N 38°42' W 009°10'0 0.0
2015-Jun-26 21:33N 38°42' W 009°10'0 0.0
2015-Jun-26 20:33N 38°42' W 009°10'0 0.0
2015-Jun-26 19:33N 38°42' W 009°10'0 0.0
2015-Jun-26 18:33N 38°42' W 009°10'0 0.0
2015-Jun-26 17:33N 38°42' W 009°10'2 1.8
2015-Jun-26 16:33N 38°41' W 009°11'2 1.9
2015-Jun-26 15:33N 38°41' W 009°14'  

Dump ship's entire track history